Terminal Aerodrome Forecast
Issued by NWS

Home | Current Version | Previous Version | Graphics & Text | Print | Product List | Glossary On
Versions: 1 2 3 4 5 6 7 8 9 10 11 12 13 14 15 16 17 18 19 20 21 22 23 24 25 26 27
000
FTUS43 KBIS 300500
TAFJMS
TAF
KJMS 300536Z 3006/3106 23005KT P6SM BKN050 BKN070
     FM300700 29005KT P6SM VCFG SKC
      TEMPO 3007/3011 2SM BR
     FM301100 33012KT P6SM OVC012
     FM301500 35017G25KT P6SM OVC015
     FM302000 36017G25KT P6SM SCT025 BKN035
     FM310000 36012KT P6SM SCT035=

USA.gov is the U.S. government's official web portal to all federal, state and local government web resources and services.